createdAt,value
2022-10-13T00:01:16.457Z,15.98
2022-10-13T00:02:48.427Z,14.60
2022-10-13T00:04:20.562Z,15.85
2022-10-13T00:05:52.830Z,14.60
2022-10-13T00:07:24.796Z,16.27
2022-10-13T00:08:57.001Z,14.52
2022-10-13T00:10:28.995Z,14.10
2022-10-13T00:12:00.980Z,18.15
2022-10-13T00:13:32.972Z,14.70
2022-10-13T00:15:07.260Z,16.27
2022-10-13T00:16:39.931Z,15.45
2022-10-13T00:18:12.478Z,18.30
2022-10-13T00:19:44.526Z,15.70
2022-10-13T00:21:19.920Z,14.13
2022-10-13T00:22:51.927Z,14.25
2022-10-13T00:24:23.914Z,16.67
2022-10-13T00:25:55.914Z,15.27
2022-10-13T00:27:28.146Z,14.93
2022-10-13T00:29:00.287Z,14.88
2022-10-13T00:30:35.574Z,16.95
2022-10-13T00:32:07.706Z,14.57
2022-10-13T00:33:39.685Z,14.70
2022-10-13T00:35:11.646Z,19.27
2022-10-13T00:36:43.666Z,17.02
2022-10-13T00:38:17.609Z,15.77
2022-10-13T00:39:49.634Z,16.15
2022-10-13T00:41:22.103Z,13.55
2022-10-13T00:42:54.641Z,14.73
2022-10-13T00:45:00.263Z,16.40
2022-10-13T00:46:36.485Z,14.05
2022-10-13T00:48:08.455Z,14.52
2022-10-13T00:49:40.448Z,16.85
2022-10-13T00:51:14.494Z,13.23
2022-10-13T00:52:47.912Z,15.88
2022-10-13T00:55:53.451Z,16.13
2022-10-13T00:57:25.491Z,16.15
2022-10-13T00:58:57.837Z,14.02
2022-10-13T01:00:30.835Z,15.35
2022-10-13T01:02:03.179Z,16.27
2022-10-13T01:03:35.485Z,14.30
2022-10-13T01:05:08.030Z,15.45
2022-10-13T01:06:40.839Z,15.63
2022-10-13T01:08:15.248Z,14.73
2022-10-13T01:09:47.574Z,19.20
2022-10-13T01:11:25.681Z,15.23
2022-10-13T01:13:22.428Z,14.90
2022-10-13T01:15:23.258Z,15.38
2022-10-13T01:17:32.672Z,13.48
2022-10-13T01:21:01.037Z,14.80
2022-10-13T01:22:53.766Z,15.80
2022-10-13T01:24:34.195Z,18.25
2022-10-13T01:26:24.177Z,13.60
2022-10-13T01:28:34.304Z,15.98
2022-10-13T01:30:19.690Z,14.38
2022-10-13T01:32:12.898Z,16.45
2022-10-13T01:34:00.362Z,16.10
2022-10-13T01:35:32.740Z,16.27
2022-10-13T01:37:12.020Z,14.85
2022-10-13T01:38:57.472Z,14.52
2022-10-13T01:40:33.157Z,14.88
2022-10-13T01:42:27.890Z,14.88
2022-10-13T01:44:16.565Z,14.20
2022-10-13T01:46:16.269Z,15.35
2022-10-13T01:47:48.799Z,16.08
2022-10-13T01:49:24.293Z,17.10
2022-10-13T01:50:59.031Z,14.20
2022-10-13T01:52:35.090Z,15.70
2022-10-13T01:54:07.444Z,14.65
2022-10-13T01:55:49.893Z,15.57
2022-10-13T01:57:47.762Z,15.75
2022-10-13T01:59:20.083Z,16.48
2022-10-13T02:01:20.778Z,14.82
2022-10-13T02:03:08.110Z,15.25
2022-10-13T02:04:49.028Z,16.30
2022-10-13T02:06:35.106Z,15.80
2022-10-13T02:08:20.257Z,14.68
2022-10-13T02:09:59.818Z,15.02
2022-10-13T02:11:32.046Z,15.57
2022-10-13T02:13:05.645Z,13.95
2022-10-13T02:14:39.374Z,14.88
2022-10-13T02:16:11.609Z,15.98
2022-10-13T02:17:45.939Z,16.13
2022-10-13T02:19:18.836Z,15.88
2022-10-13T02:20:51.011Z,14.27
2022-10-13T02:22:26.534Z,13.80
2022-10-13T02:23:58.562Z,13.60
2022-10-13T02:25:31.334Z,12.23
2022-10-13T02:27:06.200Z,14.45
2022-10-13T02:28:38.588Z,13.48
2022-10-13T02:30:11.241Z,15.10
2022-10-13T02:31:44.473Z,14.68
2022-10-13T02:33:16.958Z,14.98
2022-10-13T02:34:49.808Z,16.00
2022-10-13T02:36:21.783Z,16.75
2022-10-13T02:37:53.706Z,14.27
2022-10-13T02:39:26.078Z,14.82
2022-10-13T02:40:58.235Z,14.48
2022-10-13T02:42:30.192Z,15.80
2022-10-13T02:44:02.176Z,14.93
2022-10-13T02:45:34.218Z,15.20
2022-10-13T02:47:06.271Z,13.18
2022-10-13T02:48:38.224Z,15.35
2022-10-13T02:50:10.682Z,14.45
2022-10-13T02:51:42.632Z,14.48
2022-10-13T02:53:14.617Z,14.25
2022-10-13T02:54:46.627Z,14.63
2022-10-13T02:56:19.307Z,18.60
2022-10-13T02:57:51.241Z,13.23
2022-10-13T02:59:23.203Z,13.88
2022-10-13T03:00:55.362Z,13.75
2022-10-13T03:02:28.455Z,13.95
2022-10-13T03:04:00.510Z,13.13
2022-10-13T03:05:32.768Z,13.38
2022-10-13T03:07:04.826Z,13.65
2022-10-13T03:08:37.058Z,14.43
2022-10-13T03:10:09.337Z,13.27
2022-10-13T03:11:41.477Z,14.52
2022-10-13T03:13:13.469Z,13.20
2022-10-13T03:14:45.525Z,14.57
2022-10-13T03:16:20.330Z,17.65
2022-10-13T03:19:29.374Z,16.70
2022-10-13T03:21:04.085Z,16.63
2022-10-13T03:22:36.145Z,15.73
2022-10-13T03:24:09.056Z,13.70
2022-10-13T03:25:41.211Z,15.23
2022-10-13T03:27:16.174Z,13.05
2022-10-13T03:28:51.753Z,15.63
2022-10-13T03:30:23.866Z,15.43
2022-10-13T03:31:55.866Z,14.70
2022-10-13T03:33:27.951Z,14.20
2022-10-13T03:35:00.589Z,13.93
2022-10-13T03:36:32.570Z,14.90
2022-10-13T03:38:04.616Z,13.80
2022-10-13T03:39:36.650Z,13.82
2022-10-13T03:41:14.256Z,14.35
2022-10-13T03:42:46.271Z,13.35
2022-10-13T03:44:18.379Z,13.65
2022-10-13T03:46:00.643Z,14.25
2022-10-13T03:47:33.061Z,16.65
2022-10-13T03:49:05.165Z,14.23
2022-10-13T03:50:38.300Z,13.63
2022-10-13T03:52:10.441Z,13.50
2022-10-13T03:53:42.513Z,12.43
2022-10-13T03:55:14.514Z,14.50
2022-10-13T03:56:46.499Z,15.23
2022-10-13T03:58:18.940Z,15.40
2022-10-13T03:59:50.907Z,15.18
2022-10-13T04:01:24.964Z,14.50
2022-10-13T04:02:57.011Z,16.48
2022-10-13T04:04:29.309Z,15.60
2022-10-13T04:06:02.928Z,11.63
2022-10-13T04:07:35.197Z,14.90
2022-10-13T04:09:07.259Z,13.50
2022-10-13T04:10:39.527Z,13.00
2022-10-13T04:12:15.083Z,13.60
2022-10-13T04:13:49.131Z,15.90
2022-10-13T04:15:21.081Z,14.70
2022-10-13T04:16:53.411Z,14.35
2022-10-13T04:18:25.546Z,15.13
2022-10-13T04:19:57.590Z,14.30
2022-10-13T04:21:31.288Z,15.93
2022-10-13T04:23:03.616Z,14.20
2022-10-13T04:24:35.731Z,15.80
2022-10-13T04:26:14.584Z,13.80
2022-10-13T04:27:48.404Z,15.50
2022-10-13T04:29:20.924Z,14.43
2022-10-13T04:30:53.288Z,13.90
2022-10-13T04:32:25.603Z,16.33
2022-10-13T04:33:57.787Z,13.48
2022-10-13T04:35:30.147Z,13.40
2022-10-13T04:37:02.664Z,16.15
2022-10-13T04:38:34.983Z,13.90
2022-10-13T04:40:07.619Z,16.65
2022-10-13T04:41:40.207Z,14.70
2022-10-13T04:43:12.202Z,14.83
2022-10-13T04:44:44.351Z,14.07
2022-10-13T04:46:19.816Z,13.90
2022-10-13T04:47:51.909Z,14.70
2022-10-13T04:49:24.947Z,16.80
2022-10-13T04:51:06.359Z,15.20
2022-10-13T04:52:38.489Z,15.20
2022-10-13T04:54:10.960Z,13.80
2022-10-13T04:55:42.990Z,13.90
2022-10-13T04:57:15.082Z,15.70
2022-10-13T04:58:47.251Z,16.58
2022-10-13T05:00:19.306Z,14.20
2022-10-13T05:01:51.337Z,14.15
2022-10-13T05:03:24.487Z,16.77
2022-10-13T05:04:56.544Z,17.58
2022-10-13T05:06:32.473Z,16.70
2022-10-13T05:08:04.789Z,19.20
2022-10-13T05:09:36.782Z,17.58
2022-10-13T05:11:08.754Z,17.73
2022-10-13T05:12:40.877Z,18.30
2022-10-13T05:14:13.002Z,18.25
2022-10-13T05:15:45.037Z,20.30
2022-10-13T05:17:17.330Z,18.75
2022-10-13T05:18:50.591Z,17.90
2022-10-13T05:20:23.151Z,19.15
2022-10-13T05:21:55.213Z,17.42
2022-10-13T05:23:27.288Z,20.00
2022-10-13T05:24:59.340Z,18.08
2022-10-13T05:26:32.392Z,17.95
2022-10-13T05:28:06.072Z,17.35
2022-10-13T05:29:38.437Z,21.13
2022-10-13T05:31:12.433Z,17.42
2022-10-13T05:32:44.419Z,18.80
2022-10-13T05:34:16.743Z,18.98
2022-10-13T05:35:48.906Z,17.52
2022-10-13T05:37:22.793Z,21.77
2022-10-13T05:38:57.176Z,20.17
2022-10-13T05:40:29.634Z,19.00
2022-10-13T05:42:01.754Z,18.52
2022-10-13T05:43:34.094Z,20.77
2022-10-13T05:45:11.216Z,19.25
2022-10-13T05:46:43.468Z,22.23
2022-10-13T05:48:15.535Z,22.40
2022-10-13T05:49:47.582Z,23.02
2022-10-13T05:51:37.770Z,20.70
2022-10-13T05:53:09.757Z,21.20
2022-10-13T05:54:49.410Z,19.67
2022-10-13T05:56:26.612Z,20.73
2022-10-13T05:57:58.717Z,19.60
2022-10-13T05:59:33.148Z,20.58
2022-10-13T06:01:09.334Z,19.77
2022-10-13T06:02:51.828Z,19.73
2022-10-13T06:04:38.441Z,21.92
2022-10-13T06:06:11.242Z,19.60
2022-10-13T06:07:44.465Z,20.58
2022-10-13T06:09:17.212Z,18.58
2022-10-13T06:10:49.308Z,20.38
2022-10-13T06:12:21.813Z,17.95
2022-10-13T06:13:54.030Z,18.73
2022-10-13T06:15:28.377Z,21.00
2022-10-13T06:17:00.641Z,18.85
2022-10-13T06:18:32.756Z,20.23
2022-10-13T06:20:06.656Z,19.88
2022-10-13T06:21:38.657Z,21.75
2022-10-13T06:23:11.091Z,19.13
2022-10-13T06:24:43.148Z,21.42
2022-10-13T06:26:15.269Z,19.80
2022-10-13T06:27:47.277Z,18.60
2022-10-13T06:30:57.567Z,22.10
2022-10-13T06:32:29.551Z,21.08
2022-10-13T06:34:01.925Z,22.63
2022-10-13T06:35:34.283Z,24.20
2022-10-13T06:37:07.151Z,23.50
2022-10-13T06:38:39.262Z,22.35
2022-10-13T06:40:11.776Z,21.13
2022-10-13T06:41:43.774Z,23.13
2022-10-13T06:43:15.874Z,20.90
2022-10-13T06:44:47.956Z,22.20
2022-10-13T06:46:20.471Z,21.63
2022-10-13T06:47:55.749Z,20.00
2022-10-13T06:49:27.887Z,21.83
2022-10-13T06:51:08.062Z,21.05
2022-10-13T06:52:40.258Z,20.65
2022-10-13T06:54:12.301Z,21.02
2022-10-13T06:55:46.212Z,18.38
2022-10-13T06:57:21.191Z,20.83
2022-10-13T06:58:53.426Z,19.42
2022-10-13T07:00:25.565Z,19.85
2022-10-13T07:01:57.752Z,17.80
2022-10-13T07:05:02.605Z,20.23
2022-10-13T07:06:34.672Z,20.48
2022-10-13T07:08:06.709Z,17.00
2022-10-13T07:09:38.826Z,20.90
2022-10-13T07:11:16.623Z,17.45
2022-10-13T07:12:48.805Z,19.40
2022-10-13T07:14:20.897Z,19.63
2022-10-13T07:15:52.871Z,18.45
2022-10-13T07:17:24.982Z,18.85
2022-10-13T07:18:57.107Z,16.95
2022-10-13T07:20:29.257Z,17.73
2022-10-13T07:22:01.252Z,19.55
2022-10-13T07:23:33.562Z,16.65
2022-10-13T07:25:06.882Z,16.85
2022-10-13T07:26:39.443Z,18.40
2022-10-13T07:28:11.609Z,16.40
2022-10-13T07:29:44.151Z,17.73
2022-10-13T07:31:19.125Z,17.75
2022-10-13T07:32:51.416Z,19.75
2022-10-13T07:34:23.910Z,16.75
2022-10-13T07:35:59.807Z,16.40
2022-10-13T07:37:32.144Z,16.48
2022-10-13T07:39:04.629Z,16.70
2022-10-13T07:40:36.949Z,14.53
2022-10-13T07:42:09.079Z,16.05
2022-10-13T07:43:41.869Z,17.75
2022-10-13T07:45:14.077Z,21.55
2022-10-13T07:46:46.189Z,17.58
2022-10-13T07:48:18.216Z,17.00
2022-10-13T07:51:29.305Z,16.38
2022-10-13T07:53:01.273Z,14.95
2022-10-13T13:26:15.745Z,11.13
2022-10-13T13:27:48.190Z,9.68
2022-10-13T13:29:20.537Z,12.57
2022-10-13T13:30:52.835Z,11.37
2022-10-13T13:32:27.780Z,10.30
2022-10-13T13:34:00.102Z,9.63
2022-10-13T13:35:35.695Z,10.38
2022-10-13T13:37:24.831Z,8.90
2022-10-13T13:38:57.150Z,10.93
2022-10-13T13:40:29.749Z,8.70
2022-10-13T13:42:02.016Z,9.43
2022-10-13T13:43:34.351Z,10.75
2022-10-13T13:45:07.422Z,13.03
2022-10-13T13:46:40.106Z,9.82
2022-10-13T13:48:13.535Z,9.60
2022-10-13T13:49:46.585Z,11.23
2022-10-13T13:51:18.971Z,8.48
2022-10-13T13:52:51.266Z,11.27
2022-10-13T13:54:24.441Z,8.45
2022-10-13T13:55:56.859Z,9.57
2022-10-13T13:57:29.161Z,8.20
2022-10-13T13:59:01.210Z,8.65
2022-10-13T14:00:33.576Z,10.27
2022-10-13T14:02:06.976Z,12.23
2022-10-13T14:03:39.756Z,9.27
2022-10-13T14:05:12.930Z,11.02
2022-10-13T14:06:45.439Z,8.65
2022-10-13T14:08:17.825Z,8.68
2022-10-13T14:11:23.223Z,11.13
2022-10-13T14:12:55.615Z,8.63
2022-10-13T14:14:27.865Z,8.63
2022-10-13T14:16:01.071Z,10.15
2022-10-13T14:17:33.211Z,11.15
2022-10-13T14:19:05.526Z,9.38
2022-10-13T14:20:42.075Z,10.18
2022-10-13T14:22:14.376Z,11.32
2022-10-13T14:23:47.558Z,7.93
2022-10-13T14:25:20.037Z,9.48
2022-10-13T14:26:52.276Z,9.93
2022-10-13T14:28:24.750Z,12.18
2022-10-13T14:29:57.214Z,9.50
2022-10-13T14:31:29.542Z,9.07
2022-10-13T14:33:02.517Z,9.32
2022-10-13T14:34:34.926Z,8.77
2022-10-13T14:36:08.596Z,8.80
2022-10-13T14:37:40.815Z,10.23
2022-10-13T14:39:13.176Z,8.90
2022-10-13T14:40:45.402Z,12.53
2022-10-13T14:42:17.430Z,10.18
2022-10-13T14:43:53.685Z,11.13
2022-10-13T14:45:26.167Z,12.68
2022-10-13T14:46:58.417Z,8.85
2022-10-13T14:48:32.182Z,9.30
2022-10-13T14:50:04.711Z,10.15
2022-10-13T14:51:36.854Z,8.38
2022-10-13T14:53:11.936Z,8.68
2022-10-13T14:54:45.171Z,9.77
2022-10-13T14:56:26.230Z,7.70
2022-10-13T14:57:58.491Z,9.93
2022-10-13T14:59:31.256Z,8.65
2022-10-13T15:01:07.405Z,8.88
2022-10-13T15:02:39.713Z,12.15
2022-10-13T15:04:12.046Z,8.07
2022-10-13T15:05:44.262Z,8.30
2022-10-13T15:07:16.557Z,9.43
2022-10-13T15:08:49.362Z,10.20
2022-10-13T15:10:21.811Z,7.90
2022-10-13T15:11:54.096Z,10.03
2022-10-13T15:13:26.550Z,8.43
2022-10-13T15:14:58.866Z,9.55
2022-10-13T15:16:37.226Z,10.38
2022-10-13T15:18:09.614Z,10.82
2022-10-13T15:19:42.026Z,9.63
2022-10-13T15:21:14.828Z,8.30
2022-10-13T15:22:48.375Z,8.45
2022-10-13T15:24:21.861Z,16.90
2022-10-13T15:25:57.004Z,8.13
2022-10-13T15:27:29.281Z,8.93
2022-10-13T15:29:01.727Z,10.57
2022-10-13T15:30:34.598Z,10.70
2022-10-13T15:32:12.392Z,8.30
2022-10-13T15:33:46.461Z,10.77
2022-10-13T15:35:18.744Z,8.98
2022-10-13T15:36:51.090Z,10.25
2022-10-13T15:38:23.450Z,9.30
2022-10-13T15:39:57.561Z,10.00
2022-10-13T15:41:30.255Z,8.52
2022-10-13T15:43:02.656Z,9.80
2022-10-13T15:44:57.472Z,8.80
2022-10-13T15:46:28.962Z,13.40
2022-10-13T15:48:04.186Z,9.02
2022-10-13T15:49:40.029Z,9.10
2022-10-13T15:51:22.911Z,11.73
2022-10-13T15:52:55.224Z,9.57
2022-10-13T15:54:27.361Z,8.65
2022-10-13T15:56:02.807Z,8.43
2022-10-13T15:57:34.912Z,9.13
2022-10-13T15:59:07.504Z,9.45
2022-10-13T16:00:40.602Z,10.80
2022-10-13T16:02:12.910Z,11.98
2022-10-13T16:03:45.218Z,10.55
2022-10-13T16:05:18.627Z,11.48
2022-10-13T16:06:50.974Z,11.05
2022-10-13T16:08:23.452Z,12.65
2022-10-13T16:09:55.816Z,11.43
2022-10-13T16:11:28.242Z,14.30
2022-10-13T16:13:00.482Z,14.75
2022-10-13T16:14:32.758Z,12.02
2022-10-13T16:16:04.872Z,14.85
2022-10-13T16:17:37.890Z,11.98
2022-10-13T16:19:10.189Z,16.63
2022-10-13T16:20:45.686Z,13.38
2022-10-13T16:22:18.237Z,14.20
2022-10-13T16:23:50.467Z,14.68
2022-10-13T16:25:22.485Z,14.13
2022-10-13T16:26:54.843Z,9.95
2022-10-13T16:28:27.276Z,10.05
2022-10-13T16:29:59.713Z,15.03
2022-10-13T16:31:32.218Z,16.35
2022-10-13T16:33:04.581Z,10.73
2022-10-13T16:34:36.816Z,11.48
2022-10-13T16:36:11.770Z,10.48
2022-10-13T16:37:44.514Z,10.02
2022-10-13T16:39:16.861Z,10.88
2022-10-13T16:40:49.164Z,10.23
2022-10-13T16:42:21.482Z,15.48
2022-10-13T16:43:54.179Z,8.60
2022-10-13T16:45:47.939Z,13.30
2022-10-13T16:47:19.058Z,10.68
2022-10-13T16:48:51.401Z,10.67
2022-10-13T16:50:24.069Z,11.18
2022-10-13T16:51:56.310Z,11.32
2022-10-13T16:53:28.674Z,12.00
2022-10-13T16:55:00.965Z,9.15
2022-10-13T16:56:33.660Z,14.05
2022-10-13T16:58:05.955Z,11.82
2022-10-13T16:59:38.290Z,11.85
2022-10-13T17:01:11.394Z,9.93
2022-10-13T17:02:43.807Z,13.35
2022-10-13T17:04:19.790Z,10.55
2022-10-13T17:05:54.414Z,12.93
2022-10-13T17:07:26.649Z,11.07
2022-10-13T17:09:01.120Z,10.18
2022-10-13T17:10:34.852Z,12.02
2022-10-13T17:12:07.924Z,10.70
2022-10-13T17:13:40.209Z,11.57
2022-10-13T17:15:12.638Z,11.45
2022-10-13T17:16:45.585Z,12.75
2022-10-13T17:18:18.165Z,11.80
2022-10-13T17:19:50.611Z,12.20
2022-10-13T17:21:22.924Z,11.70
2022-10-13T17:22:55.262Z,12.80
2022-10-13T17:24:27.854Z,11.38
2022-10-13T17:26:05.471Z,12.02
2022-10-13T17:27:38.046Z,14.23
2022-10-13T17:29:10.385Z,12.75
2022-10-13T17:30:42.851Z,13.77
2022-10-13T17:32:15.146Z,12.67
2022-10-13T17:33:48.712Z,12.25
2022-10-13T17:35:21.068Z,12.07
2022-10-13T17:36:53.508Z,13.18
2022-10-13T17:39:58.795Z,12.93
2022-10-13T17:41:31.213Z,11.93
2022-10-13T17:43:03.615Z,11.45
2022-10-13T17:44:36.132Z,12.85
2022-10-13T17:46:37.880Z,12.70
2022-10-13T17:48:14.292Z,11.05
2022-10-13T17:49:46.706Z,11.90
2022-10-13T17:51:22.958Z,13.40
2022-10-13T17:52:55.529Z,12.23
2022-10-13T17:54:28.049Z,13.07
2022-10-13T17:56:02.038Z,13.30
2022-10-13T17:57:34.319Z,10.65
2022-10-13T17:59:06.834Z,14.27
2022-10-13T18:01:07.601Z,13.00
2022-10-13T18:02:31.576Z,14.10
2022-10-13T18:04:11.450Z,12.35
2022-10-13T18:05:43.970Z,11.82
2022-10-13T18:07:16.211Z,11.55
2022-10-13T18:08:48.813Z,11.35
2022-10-13T18:10:21.205Z,12.63
2022-10-13T18:11:54.837Z,15.30
2022-10-13T18:13:27.156Z,11.50
2022-10-13T18:14:59.532Z,13.68
2022-10-13T18:16:35.596Z,10.98
2022-10-13T18:18:07.942Z,13.18
2022-10-13T18:19:40.603Z,11.27
2022-10-13T18:21:17.306Z,11.27
2022-10-13T18:22:49.710Z,13.38
2022-10-13T18:24:22.094Z,12.85
2022-10-13T18:25:54.428Z,11.13
2022-10-13T18:27:26.641Z,10.20
2022-10-13T18:28:59.285Z,10.52
2022-10-13T18:30:32.604Z,12.50
2022-10-13T18:32:05.152Z,10.48
2022-10-13T18:33:37.619Z,12.50
2022-10-13T18:35:10.211Z,12.68
2022-10-13T18:36:45.207Z,10.67
2022-10-13T18:38:20.234Z,9.32
2022-10-13T18:39:52.587Z,12.27
2022-10-13T18:41:25.189Z,10.80
2022-10-13T18:44:30.098Z,12.80
2022-10-13T18:46:03.086Z,13.38
2022-10-13T18:47:35.395Z,12.70
2022-10-13T18:49:11.175Z,10.23
2022-10-13T18:50:43.517Z,11.57
2022-10-13T18:52:15.839Z,9.57
2022-10-13T18:53:51.007Z,9.30
2022-10-13T18:55:23.334Z,10.93
2022-10-13T18:56:55.724Z,12.30
2022-10-13T18:58:28.013Z,10.43
2022-10-13T19:00:00.233Z,10.88
2022-10-13T19:01:33.281Z,10.55
2022-10-13T19:03:05.387Z,10.82
2022-10-13T19:04:37.733Z,9.82
2022-10-13T19:06:12.814Z,11.85
2022-10-13T19:07:44.928Z,11.15
2022-10-13T19:09:17.858Z,10.82
2022-10-13T19:10:50.934Z,12.95
2022-10-13T19:12:23.223Z,10.00
2022-10-13T19:13:55.384Z,12.65
2022-10-13T19:15:27.480Z,11.35
2022-10-13T19:17:02.159Z,11.27
2022-10-13T19:18:34.972Z,9.90
2022-10-13T19:20:07.341Z,10.90
2022-10-13T19:21:39.939Z,12.02
2022-10-13T19:23:16.315Z,12.50
2022-10-13T19:24:48.699Z,10.68
2022-10-13T19:26:24.877Z,12.93
2022-10-13T19:27:57.235Z,10.90
2022-10-13T19:29:31.115Z,12.75
2022-10-13T19:31:30.295Z,11.13
2022-10-13T19:33:02.844Z,10.65
2022-10-13T19:34:35.284Z,10.52
2022-10-13T19:36:07.774Z,10.93
2022-10-13T19:37:41.139Z,11.37
2022-10-13T19:39:22.286Z,10.43
2022-10-13T19:40:54.628Z,10.98
2022-10-13T19:42:27.034Z,10.82
2022-10-13T19:43:59.935Z,11.27
2022-10-13T19:45:32.517Z,13.52
2022-10-13T19:47:04.844Z,11.15
2022-10-13T19:48:36.987Z,10.95
2022-10-13T19:50:09.465Z,12.40
2022-10-13T19:51:45.033Z,13.03
2022-10-13T19:53:17.561Z,12.95
2022-10-13T19:54:52.733Z,10.40
2022-10-13T19:56:32.045Z,12.60
2022-10-13T19:58:04.501Z,10.32
2022-10-13T19:59:37.738Z,12.93
2022-10-13T20:01:09.935Z,11.77
2022-10-13T20:02:42.396Z,12.40
2022-10-13T20:04:16.322Z,13.82
2022-10-13T20:05:48.276Z,11.07
2022-10-13T20:07:20.814Z,11.88
2022-10-13T20:08:53.075Z,13.00
2022-10-13T20:10:25.410Z,12.77
2022-10-13T20:11:57.465Z,13.98
2022-10-13T20:13:29.569Z,14.77
2022-10-13T20:15:01.582Z,12.63
2022-10-13T20:16:33.710Z,11.45
2022-10-13T20:18:06.965Z,13.02
2022-10-13T20:19:39.017Z,10.88
2022-10-13T20:21:12.621Z,9.82
2022-10-13T20:22:44.659Z,10.82
2022-10-13T20:24:16.963Z,13.60
2022-10-13T20:25:49.112Z,13.05
2022-10-13T20:27:21.356Z,11.48
2022-10-13T20:28:54.607Z,12.27
2022-10-13T20:30:26.873Z,14.18
2022-10-13T20:31:58.951Z,12.93
2022-10-13T20:33:34.657Z,10.75
2022-10-13T20:35:07.046Z,12.75
2022-10-13T20:36:39.481Z,12.05
2022-10-13T20:38:11.678Z,12.40
2022-10-13T20:39:44.066Z,11.80
2022-10-13T20:41:27.254Z,12.60
2022-10-13T20:42:59.648Z,11.15
2022-10-13T20:44:31.709Z,12.93
2022-10-13T20:46:06.179Z,12.18
2022-10-13T20:47:38.251Z,11.40
2022-10-13T20:49:11.863Z,11.35
2022-10-13T20:50:44.806Z,12.60
2022-10-13T20:52:16.890Z,11.85
2022-10-13T20:53:49.488Z,10.95
2022-10-13T20:55:21.506Z,14.57
2022-10-13T20:56:53.530Z,10.48
2022-10-13T20:58:29.847Z,10.63
2022-10-13T21:00:02.016Z,11.18
2022-10-13T21:01:34.821Z,12.07
2022-10-13T21:03:06.925Z,9.63
2022-10-13T21:04:39.049Z,10.20
2022-10-13T21:06:13.363Z,13.55
2022-10-13T21:07:45.421Z,12.23
2022-10-13T21:09:17.458Z,11.15
2022-10-13T21:10:50.773Z,11.07
2022-10-13T21:12:22.912Z,13.35
2022-10-13T21:13:55.086Z,11.95
2022-10-13T21:15:27.135Z,10.55
2022-10-13T21:16:59.334Z,10.32
2022-10-13T21:18:31.359Z,13.27
2022-10-13T21:20:04.162Z,10.40
2022-10-13T21:21:40.852Z,10.35
2022-10-13T21:23:12.900Z,12.38
2022-10-13T21:24:45.014Z,9.48
2022-10-13T21:26:21.851Z,9.80
2022-10-13T21:27:56.739Z,9.07
2022-10-13T21:29:28.902Z,9.65
2022-10-13T21:31:03.332Z,10.35
2022-10-13T21:32:35.374Z,11.82
2022-10-13T21:34:07.457Z,11.35
2022-10-13T21:35:39.911Z,10.77
2022-10-13T21:37:11.885Z,11.02
2022-10-13T21:38:45.015Z,9.70
2022-10-13T21:40:17.156Z,8.95
2022-10-13T21:41:49.197Z,9.88
2022-10-13T21:43:21.234Z,9.75
2022-10-13T21:44:53.638Z,10.38
2022-10-13T21:46:28.188Z,9.73
2022-10-13T21:48:00.241Z,8.52
2022-10-13T21:49:32.376Z,12.20
2022-10-13T21:51:15.381Z,11.43
2022-10-13T21:52:47.301Z,11.63
2022-10-13T21:54:19.478Z,9.75
2022-10-13T21:55:52.240Z,10.40
2022-10-13T21:57:24.917Z,9.98
2022-10-13T21:58:57.037Z,9.40
2022-10-13T22:00:32.085Z,10.60
2022-10-13T22:02:04.159Z,9.30
2022-10-13T22:03:36.335Z,10.10
2022-10-13T22:05:08.464Z,9.95
2022-10-13T22:06:40.509Z,11.63
2022-10-13T22:08:12.535Z,9.50
2022-10-13T22:09:44.511Z,10.40
2022-10-13T22:11:17.363Z,12.57
2022-10-13T22:12:49.379Z,12.10
2022-10-13T22:16:06.855Z,9.65
2022-10-13T22:17:38.904Z,11.10
2022-10-13T22:19:11.209Z,9.20
2022-10-13T22:20:43.162Z,9.15
2022-10-13T22:22:16.264Z,9.75
2022-10-13T22:23:48.881Z,10.00
2022-10-13T22:25:20.873Z,9.48
2022-10-13T22:26:52.860Z,11.05
2022-10-13T22:28:25.400Z,9.20
2022-10-13T22:29:57.624Z,9.80
2022-10-13T22:31:30.917Z,8.30
2022-10-13T22:33:02.900Z,9.40
2022-10-13T22:34:34.877Z,9.45
2022-10-13T22:36:09.219Z,9.68
2022-10-13T22:37:41.138Z,10.05
2022-10-13T22:39:13.625Z,9.38
2022-10-13T22:40:45.568Z,9.10
2022-10-13T22:42:17.617Z,9.82
2022-10-13T22:43:51.425Z,9.68
2022-10-13T22:45:26.411Z,8.32
2022-10-13T22:46:58.445Z,7.82
2022-10-13T22:48:30.567Z,9.70
2022-10-13T22:50:02.641Z,10.55
2022-10-13T22:51:35.868Z,9.35
2022-10-13T22:53:07.853Z,8.82
2022-10-13T22:54:39.821Z,10.98
2022-10-13T22:56:14.155Z,11.85
2022-10-13T22:57:46.179Z,11.52
2022-10-13T22:59:18.332Z,9.50
2022-10-13T23:00:50.294Z,8.40
2022-10-13T23:02:22.214Z,8.35
2022-10-13T23:03:55.969Z,10.68
2022-10-13T23:05:28.123Z,10.43
2022-10-13T23:07:00.123Z,8.15
2022-10-13T23:08:32.279Z,9.95
2022-10-13T23:10:04.653Z,8.32
2022-10-13T23:11:36.796Z,11.13
2022-10-13T23:13:08.791Z,8.60
2022-10-13T23:14:40.801Z,9.00
2022-10-13T23:16:24.133Z,8.90
2022-10-13T23:19:29.048Z,8.60
2022-10-13T23:21:05.171Z,8.98
2022-10-13T23:22:37.096Z,12.68
2022-10-13T23:24:11.131Z,9.13
2022-10-13T23:25:43.067Z,8.77
2022-10-13T23:27:15.199Z,8.38
2022-10-13T23:28:47.220Z,9.95
2022-10-13T23:30:19.234Z,9.55
2022-10-13T23:31:54.227Z,8.85
2022-10-13T23:33:26.363Z,10.07
2022-10-13T23:34:58.406Z,9.95
2022-10-13T23:36:32.384Z,8.80
2022-10-13T23:38:04.357Z,9.77
2022-10-13T23:39:36.595Z,8.90
2022-10-13T23:41:11.255Z,8.90
2022-10-13T23:42:43.207Z,8.82
2022-10-13T23:44:15.191Z,9.63
2022-10-13T23:45:50.590Z,10.00
2022-10-13T23:47:23.005Z,11.23
2022-10-13T23:48:55.606Z,11.73
2022-10-13T23:50:27.573Z,10.07
2022-10-13T23:51:59.555Z,8.63
2022-10-13T23:53:34.959Z,9.40
2022-10-13T23:55:07.157Z,9.25
2022-10-13T23:56:39.278Z,9.60
2022-10-13T23:58:11.630Z,11.50
2022-10-13T23:59:43.594Z,9.85
